Forest Lake, Illinois
Current Conditions -  °F | °C
As of 9:52 PM on Saturday 25 Oct 2014 (Local Time) from KPWK Reporting Station
Clear Clear  
Wind Chill: 57°   Ceiling: Unl
Heat Index: 57°   Visibility: 10mi
Dew Point: 28°   Wind: 8mph
Humidity: 33%   Direction: 310°NW
Pressure: 29.98"   Gusts: NA
Location:  42.201°N, 88.0504°W
Report Text: KPWK 260252Z AUTO 31007KT 10SM CLR 14/M02 A2998 RMK AO2 SLP152 T01391022 51014
Loading
Personal Weather Stations






























Interactive Weather Map
Tropical Storm Tracking
New forecast layout! Learn more

10-Day Weather Forecast

Advertisements
Track Severe Weather on mobile